sensor_id;sensor_type;location;lat;lon;timestamp;temperature;humidity
31074;DHT22;17730;53.552;9.940;2023-04-19T00:01:29;6.30;99.90
31074;DHT22;17730;53.552;9.940;2023-04-19T00:03:54;6.30;99.90
31074;DHT22;17730;53.552;9.940;2023-04-19T00:06:20;6.30;99.90
31074;DHT22;17730;53.552;9.940;2023-04-19T00:08:46;6.30;99.90
31074;DHT22;17730;53.552;9.940;2023-04-19T00:11:11;6.30;99.90
31074;DHT22;17730;53.552;9.940;2023-04-19T00:13:37;6.30;99.90
31074;DHT22;17730;53.552;9.940;2023-04-19T00:16:02;6.20;99.90
31074;DHT22;17730;53.552;9.940;2023-04-19T00:18:28;6.20;99.90
31074;DHT22;17730;53.552;9.940;2023-04-19T00:20:53;6.20;99.90
31074;DHT22;17730;53.552;9.940;2023-04-19T00:23:19;6.10;99.90
31074;DHT22;17730;53.552;9.940;2023-04-19T00:25:44;6.10;99.90
31074;DHT22;17730;53.552;9.940;2023-04-19T00:28:10;6.00;99.90
31074;DHT22;17730;53.552;9.940;2023-04-19T00:30:35;6.00;99.90
31074;DHT22;17730;53.552;9.940;2023-04-19T00:33:01;5.90;99.90
31074;DHT22;17730;53.552;9.940;2023-04-19T00:35:26;5.90;99.90
31074;DHT22;17730;53.552;9.940;2023-04-19T00:37:52;6.00;99.90
31074;DHT22;17730;53.552;9.940;2023-04-19T00:40:17;6.00;99.90
31074;DHT22;17730;53.552;9.940;2023-04-19T00:42:43;5.90;99.90
31074;DHT22;17730;53.552;9.940;2023-04-19T00:45:08;5.90;99.90
31074;DHT22;17730;53.552;9.940;2023-04-19T00:47:34;6.00;99.90
31074;DHT22;17730;53.552;9.940;2023-04-19T00:50:01;6.00;99.90
31074;DHT22;17730;53.552;9.940;2023-04-19T00:52:26;6.00;99.90
31074;DHT22;17730;53.552;9.940;2023-04-19T00:54:51;6.00;99.90
31074;DHT22;17730;53.552;9.940;2023-04-19T00:57:17;6.00;99.90
31074;DHT22;17730;53.552;9.940;2023-04-19T00:59:43;6.00;99.90
31074;DHT22;17730;53.552;9.940;2023-04-19T01:02:09;6.00;99.90
31074;DHT22;17730;53.552;9.940;2023-04-19T01:04:34;5.90;99.90
31074;DHT22;17730;53.552;9.940;2023-04-19T01:07:01;6.00;99.90
31074;DHT22;17730;53.552;9.940;2023-04-19T01:09:27;6.00;99.90
31074;DHT22;17730;53.552;9.940;2023-04-19T01:11:52;6.00;99.90
31074;DHT22;17730;53.552;9.940;2023-04-19T01:14:18;6.00;99.90
31074;DHT22;17730;53.552;9.940;2023-04-19T01:16:43;6.00;99.90
31074;DHT22;17730;53.552;9.940;2023-04-19T01:19:10;5.90;99.90
31074;DHT22;17730;53.552;9.940;2023-04-19T01:21:36;5.90;99.90
31074;DHT22;17730;53.552;9.940;2023-04-19T01:24:03;5.80;99.90
31074;DHT22;17730;53.552;9.940;2023-04-19T01:26:29;5.80;99.90
31074;DHT22;17730;53.552;9.940;2023-04-19T01:28:54;5.70;99.90
31074;DHT22;17730;53.552;9.940;2023-04-19T01:31:19;5.80;99.90
31074;DHT22;17730;53.552;9.940;2023-04-19T01:33:45;5.90;99.90
31074;DHT22;17730;53.552;9.940;2023-04-19T01:36:10;5.90;99.90
31074;DHT22;17730;53.552;9.940;2023-04-19T01:38:37;5.90;99.90
31074;DHT22;17730;53.552;9.940;2023-04-19T01:41:02;5.90;99.90
31074;DHT22;17730;53.552;9.940;2023-04-19T01:43:28;5.90;99.90
31074;DHT22;17730;53.552;9.940;2023-04-19T01:45:53;5.90;99.90
31074;DHT22;17730;53.552;9.940;2023-04-19T01:48:19;5.90;99.90
31074;DHT22;17730;53.552;9.940;2023-04-19T01:50:44;5.90;99.90
31074;DHT22;17730;53.552;9.940;2023-04-19T01:53:10;6.00;99.90
31074;DHT22;17730;53.552;9.940;2023-04-19T01:55:35;5.90;99.90
31074;DHT22;17730;53.552;9.940;2023-04-19T01:58:00;5.90;99.90
31074;DHT22;17730;53.552;9.940;2023-04-19T02:00:26;5.90;99.90
31074;DHT22;17730;53.552;9.940;2023-04-19T02:02:51;5.90;99.90
31074;DHT22;17730;53.552;9.940;2023-04-19T02:05:17;5.90;99.90
31074;DHT22;17730;53.552;9.940;2023-04-19T02:07:42;5.90;99.90
31074;DHT22;17730;53.552;9.940;2023-04-19T02:10:08;5.80;99.90
31074;DHT22;17730;53.552;9.940;2023-04-19T02:12:34;5.80;99.90
31074;DHT22;17730;53.552;9.940;2023-04-19T02:15:00;5.80;99.90
31074;DHT22;17730;53.552;9.940;2023-04-19T02:17:28;5.80;99.90
31074;DHT22;17730;53.552;9.940;2023-04-19T02:19:54;5.80;99.90
31074;DHT22;17730;53.552;9.940;2023-04-19T02:22:20;5.70;99.90
31074;DHT22;17730;53.552;9.940;2023-04-19T02:24:45;5.70;99.90
31074;DHT22;17730;53.552;9.940;2023-04-19T02:27:11;5.80;99.90
31074;DHT22;17730;53.552;9.940;2023-04-19T02:29:37;5.70;99.90
31074;DHT22;17730;53.552;9.940;2023-04-19T02:32:03;5.80;99.90
31074;DHT22;17730;53.552;9.940;2023-04-19T02:34:30;5.70;99.90
31074;DHT22;17730;53.552;9.940;2023-04-19T02:36:56;5.70;99.90
31074;DHT22;17730;53.552;9.940;2023-04-19T02:39:21;5.60;99.90
31074;DHT22;17730;53.552;9.940;2023-04-19T02:41:47;5.60;99.90
31074;DHT22;17730;53.552;9.940;2023-04-19T02:44:13;5.60;99.90
31074;DHT22;17730;53.552;9.940;2023-04-19T02:46:38;5.60;99.90
31074;DHT22;17730;53.552;9.940;2023-04-19T02:49:04;5.60;99.90
31074;DHT22;17730;53.552;9.940;2023-04-19T02:51:29;5.60;99.90
31074;DHT22;17730;53.552;9.940;2023-04-19T02:53:55;5.60;99.90
31074;DHT22;17730;53.552;9.940;2023-04-19T02:56:20;5.50;99.90
31074;DHT22;17730;53.552;9.940;2023-04-19T02:58:46;5.50;99.90
31074;DHT22;17730;53.552;9.940;2023-04-19T03:01:11;5.50;99.90
31074;DHT22;17730;53.552;9.940;2023-04-19T03:03:37;5.50;99.90
31074;DHT22;17730;53.552;9.940;2023-04-19T03:06:02;5.50;99.90
31074;DHT22;17730;53.552;9.940;2023-04-19T03:08:28;5.50;99.90
31074;DHT22;17730;53.552;9.940;2023-04-19T03:10:53;5.40;99.90
31074;DHT22;17730;53.552;9.940;2023-04-19T03:13:19;5.40;99.90
31074;DHT22;17730;53.552;9.940;2023-04-19T03:15:44;5.40;99.90
31074;DHT22;17730;53.552;9.940;2023-04-19T03:18:09;5.30;99.90
31074;DHT22;17730;53.552;9.940;2023-04-19T03:20:35;5.30;99.90
31074;DHT22;17730;53.552;9.940;2023-04-19T03:23:00;5.30;99.90
31074;DHT22;17730;53.552;9.940;2023-04-19T03:25:26;5.20;99.90
31074;DHT22;17730;53.552;9.940;2023-04-19T03:27:52;5.30;99.90
31074;DHT22;17730;53.552;9.940;2023-04-19T03:30:17;5.20;99.90
31074;DHT22;17730;53.552;9.940;2023-04-19T03:32:43;5.20;99.90
31074;DHT22;17730;53.552;9.940;2023-04-19T03:35:08;5.20;99.90
31074;DHT22;17730;53.552;9.940;2023-04-19T03:37:34;5.20;99.90
31074;DHT22;17730;53.552;9.940;2023-04-19T03:39:59;5.20;99.90
31074;DHT22;17730;53.552;9.940;2023-04-19T03:42:25;5.20;99.90
31074;DHT22;17730;53.552;9.940;2023-04-19T03:44:50;5.20;99.90
31074;DHT22;17730;53.552;9.940;2023-04-19T03:47:16;5.10;99.90
31074;DHT22;17730;53.552;9.940;2023-04-19T03:49:41;5.10;99.90
31074;DHT22;17730;53.552;9.940;2023-04-19T03:52:07;5.10;99.90
31074;DHT22;17730;53.552;9.940;2023-04-19T03:54:32;5.10;99.90
31074;DHT22;17730;53.552;9.940;2023-04-19T03:56:58;5.10;99.90
31074;DHT22;17730;53.552;9.940;2023-04-19T03:59:23;5.00;99.90
31074;DHT22;17730;53.552;9.940;2023-04-19T04:01:49;5.00;99.90
31074;DHT22;17730;53.552;9.940;2023-04-19T04:04:14;5.00;99.90
31074;DHT22;17730;53.552;9.940;2023-04-19T04:06:40;5.00;99.90
31074;DHT22;17730;53.552;9.940;2023-04-19T04:09:05;5.10;99.90
31074;DHT22;17730;53.552;9.940;2023-04-19T04:11:30;5.10;99.90
31074;DHT22;17730;53.552;9.940;2023-04-19T04:13:56;5.10;99.90
31074;DHT22;17730;53.552;9.940;2023-04-19T04:16:21;5.10;99.90
31074;DHT22;17730;53.552;9.940;2023-04-19T04:18:47;5.10;99.90
31074;DHT22;17730;53.552;9.940;2023-04-19T04:21:12;5.10;99.90
31074;DHT22;17730;53.552;9.940;2023-04-19T04:23:38;5.20;99.90
31074;DHT22;17730;53.552;9.940;2023-04-19T04:26:03;5.20;99.90
31074;DHT22;17730;53.552;9.940;2023-04-19T04:28:30;5.30;99.90
31074;DHT22;17730;53.552;9.940;2023-04-19T04:30:56;5.30;99.90
31074;DHT22;17730;53.552;9.940;2023-04-19T04:33:25;5.30;99.90
31074;DHT22;17730;53.552;9.940;2023-04-19T04:35:51;5.30;99.90
31074;DHT22;17730;53.552;9.940;2023-04-19T04:38:17;5.30;99.90
31074;DHT22;17730;53.552;9.940;2023-04-19T04:40:43;5.40;99.90
31074;DHT22;17730;53.552;9.940;2023-04-19T04:43:08;5.40;99.90
31074;DHT22;17730;53.552;9.940;2023-04-19T04:45:35;5.50;99.90
31074;DHT22;17730;53.552;9.940;2023-04-19T04:48:02;5.60;99.90
31074;DHT22;17730;53.552;9.940;2023-04-19T04:50:27;5.60;99.90
31074;DHT22;17730;53.552;9.940;2023-04-19T04:52:53;5.60;99.90
31074;DHT22;17730;53.552;9.940;2023-04-19T04:55:18;5.60;99.90
31074;DHT22;17730;53.552;9.940;2023-04-19T04:57:44;5.60;99.90
31074;DHT22;17730;53.552;9.940;2023-04-19T05:00:09;5.60;99.90
31074;DHT22;17730;53.552;9.940;2023-04-19T05:02:35;5.70;99.90
31074;DHT22;17730;53.552;9.940;2023-04-19T05:05:01;5.70;99.90
31074;DHT22;17730;53.552;9.940;2023-04-19T05:07:27;5.70;99.90
31074;DHT22;17730;53.552;9.940;2023-04-19T05:09:53;5.80;99.90
31074;DHT22;17730;53.552;9.940;2023-04-19T05:12:18;5.80;99.90
31074;DHT22;17730;53.552;9.940;2023-04-19T05:14:44;5.80;99.90
31074;DHT22;17730;53.552;9.940;2023-04-19T05:17:09;5.80;99.90
31074;DHT22;17730;53.552;9.940;2023-04-19T05:19:34;5.90;99.90
31074;DHT22;17730;53.552;9.940;2023-04-19T05:22:00;5.90;99.90
31074;DHT22;17730;53.552;9.940;2023-04-19T05:24:25;5.90;99.90
31074;DHT22;17730;53.552;9.940;2023-04-19T05:26:51;5.90;99.90
31074;DHT22;17730;53.552;9.940;2023-04-19T05:29:17;6.00;99.90
31074;DHT22;17730;53.552;9.940;2023-04-19T05:31:42;6.00;99.90
31074;DHT22;17730;53.552;9.940;2023-04-19T05:34:07;6.00;99.90
31074;DHT22;17730;53.552;9.940;2023-04-19T05:36:34;6.10;99.90
31074;DHT22;17730;53.552;9.940;2023-04-19T05:38:59;6.20;99.90
31074;DHT22;17730;53.552;9.940;2023-04-19T05:41:25;6.20;99.90
31074;DHT22;17730;53.552;9.940;2023-04-19T05:43:51;6.30;99.90
31074;DHT22;17730;53.552;9.940;2023-04-19T05:46:16;6.40;99.90
31074;DHT22;17730;53.552;9.940;2023-04-19T05:48:41;6.40;99.90
31074;DHT22;17730;53.552;9.940;2023-04-19T05:51:07;6.50;99.90
31074;DHT22;17730;53.552;9.940;2023-04-19T05:53:32;6.50;99.90
31074;DHT22;17730;53.552;9.940;2023-04-19T05:55:58;6.60;99.90
31074;DHT22;17730;53.552;9.940;2023-04-19T05:58:23;6.70;99.90
31074;DHT22;17730;53.552;9.940;2023-04-19T06:00:50;6.80;99.90
31074;DHT22;17730;53.552;9.940;2023-04-19T06:03:15;6.90;99.90
31074;DHT22;17730;53.552;9.940;2023-04-19T06:05:41;7.00;99.90
31074;DHT22;17730;53.552;9.940;2023-04-19T06:08:07;7.10;99.90
31074;DHT22;17730;53.552;9.940;2023-04-19T06:10:34;7.20;99.90
31074;DHT22;17730;53.552;9.940;2023-04-19T06:12:59;7.30;99.90
31074;DHT22;17730;53.552;9.940;2023-04-19T06:15:25;7.40;99.40
31074;DHT22;17730;53.552;9.940;2023-04-19T06:17:51;7.50;98.70
31074;DHT22;17730;53.552;9.940;2023-04-19T06:20:16;7.60;98.20
31074;DHT22;17730;53.552;9.940;2023-04-19T06:22:43;7.60;97.90
31074;DHT22;17730;53.552;9.940;2023-04-19T06:25:09;7.70;97.40
31074;DHT22;17730;53.552;9.940;2023-04-19T06:27:34;7.80;97.80
31074;DHT22;17730;53.552;9.940;2023-04-19T06:30:00;7.80;97.50
31074;DHT22;17730;53.552;9.940;2023-04-19T06:32:25;7.90;97.40
31074;DHT22;17730;53.552;9.940;2023-04-19T06:34:51;7.90;97.40
31074;DHT22;17730;53.552;9.940;2023-04-19T06:37:16;8.00;97.30
31074;DHT22;17730;53.552;9.940;2023-04-19T06:39:42;8.10;97.20
31074;DHT22;17730;53.552;9.940;2023-04-19T06:42:07;8.20;96.80
31074;DHT22;17730;53.552;9.940;2023-04-19T06:44:33;8.10;96.90
31074;DHT22;17730;53.552;9.940;2023-04-19T06:46:58;8.20;97.00
31074;DHT22;17730;53.552;9.940;2023-04-19T06:49:24;8.20;97.10
31074;DHT22;17730;53.552;9.940;2023-04-19T06:51:49;8.30;96.90
31074;DHT22;17730;53.552;9.940;2023-04-19T06:54:15;8.40;96.70
31074;DHT22;17730;53.552;9.940;2023-04-19T06:56:45;8.40;96.60
31074;DHT22;17730;53.552;9.940;2023-04-19T06:59:14;8.60;96.50
31074;DHT22;17730;53.552;9.940;2023-04-19T07:01:41;8.60;96.00
31074;DHT22;17730;53.552;9.940;2023-04-19T07:04:06;8.70;95.60
31074;DHT22;17730;53.552;9.940;2023-04-19T07:06:35;8.70;95.30
31074;DHT22;17730;53.552;9.940;2023-04-19T07:09:02;8.80;95.60
31074;DHT22;17730;53.552;9.940;2023-04-19T07:11:28;8.90;94.30
31074;DHT22;17730;53.552;9.940;2023-04-19T07:13:53;8.90;94.40
31074;DHT22;17730;53.552;9.940;2023-04-19T07:16:19;9.00;93.70
31074;DHT22;17730;53.552;9.940;2023-04-19T07:18:44;9.20;93.50
31074;DHT22;17730;53.552;9.940;2023-04-19T07:21:10;9.30;93.00
31074;DHT22;17730;53.552;9.940;2023-04-19T07:23:36;9.30;92.30
31074;DHT22;17730;53.552;9.940;2023-04-19T07:26:02;9.40;92.40
31074;DHT22;17730;53.552;9.940;2023-04-19T07:28:27;9.50;91.90
31074;DHT22;17730;53.552;9.940;2023-04-19T07:30:53;9.50;91.80
31074;DHT22;17730;53.552;9.940;2023-04-19T07:33:19;9.70;91.60
31074;DHT22;17730;53.552;9.940;2023-04-19T07:35:44;9.80;91.00
31074;DHT22;17730;53.552;9.940;2023-04-19T07:38:10;9.90;90.70
31074;DHT22;17730;53.552;9.940;2023-04-19T07:40:35;10.10;90.30
31074;DHT22;17730;53.552;9.940;2023-04-19T07:43:01;10.10;89.50
31074;DHT22;17730;53.552;9.940;2023-04-19T07:45:28;10.10;89.20
31074;DHT22;17730;53.552;9.940;2023-04-19T07:47:54;10.30;88.60
31074;DHT22;17730;53.552;9.940;2023-04-19T07:50:19;10.40;87.80
31074;DHT22;17730;53.552;9.940;2023-04-19T07:52:45;10.50;85.70
31074;DHT22;17730;53.552;9.940;2023-04-19T07:55:10;10.50;84.50
31074;DHT22;17730;53.552;9.940;2023-04-19T07:57:36;10.60;84.40
31074;DHT22;17730;53.552;9.940;2023-04-19T08:00:02;10.60;82.40
31074;DHT22;17730;53.552;9.940;2023-04-19T08:02:29;10.70;82.80
31074;DHT22;17730;53.552;9.940;2023-04-19T08:04:54;10.70;81.20
31074;DHT22;17730;53.552;9.940;2023-04-19T08:07:20;10.90;81.10
31074;DHT22;17730;53.552;9.940;2023-04-19T08:09:47;10.90;78.50
31074;DHT22;17730;53.552;9.940;2023-04-19T08:12:13;10.80;77.90
31074;DHT22;17730;53.552;9.940;2023-04-19T08:14:38;10.90;77.80
31074;DHT22;17730;53.552;9.940;2023-04-19T08:17:04;10.80;77.30
31074;DHT22;17730;53.552;9.940;2023-04-19T08:19:30;10.70;75.80
31074;DHT22;17730;53.552;9.940;2023-04-19T08:21:55;10.90;75.20
31074;DHT22;17730;53.552;9.940;2023-04-19T08:24:21;11.10;74.50
31074;DHT22;17730;53.552;9.940;2023-04-19T08:26:47;11.10;73.50
31074;DHT22;17730;53.552;9.940;2023-04-19T08:29:20;11.20;74.20
31074;DHT22;17730;53.552;9.940;2023-04-19T08:31:46;11.30;73.30
31074;DHT22;17730;53.552;9.940;2023-04-19T08:34:12;11.50;72.90
31074;DHT22;17730;53.552;9.940;2023-04-19T08:36:37;11.70;71.30
31074;DHT22;17730;53.552;9.940;2023-04-19T08:39:03;11.70;70.40
31074;DHT22;17730;53.552;9.940;2023-04-19T08:41:31;11.50;69.40
31074;DHT22;17730;53.552;9.940;2023-04-19T08:43:57;11.50;70.00
31074;DHT22;17730;53.552;9.940;2023-04-19T08:46:24;11.50;67.80
31074;DHT22;17730;53.552;9.940;2023-04-19T08:48:51;11.40;68.60
31074;DHT22;17730;53.552;9.940;2023-04-19T08:51:17;11.40;69.60
31074;DHT22;17730;53.552;9.940;2023-04-19T08:53:44;11.40;69.50
31074;DHT22;17730;53.552;9.940;2023-04-19T08:56:10;11.50;70.20
31074;DHT22;17730;53.552;9.940;2023-04-19T08:58:36;11.70;69.40
31074;DHT22;17730;53.552;9.940;2023-04-19T09:01:04;11.60;67.40
31074;DHT22;17730;53.552;9.940;2023-04-19T09:03:30;11.80;66.50
31074;DHT22;17730;53.552;9.940;2023-04-19T09:05:56;11.90;64.70
31074;DHT22;17730;53.552;9.940;2023-04-19T09:08:28;12.00;64.50
31074;DHT22;17730;53.552;9.940;2023-04-19T09:13:20;12.00;63.50
31074;DHT22;17730;53.552;9.940;2023-04-19T09:15:45;11.90;62.00
31074;DHT22;17730;53.552;9.940;2023-04-19T09:18:11;11.90;61.80
31074;DHT22;17730;53.552;9.940;2023-04-19T09:20:37;12.00;61.90
31074;DHT22;17730;53.552;9.940;2023-04-19T09:23:09;12.10;61.40
31074;DHT22;17730;53.552;9.940;2023-04-19T09:25:37;12.20;59.60
31074;DHT22;17730;53.552;9.940;2023-04-19T09:28:11;12.40;60.10
31074;DHT22;17730;53.552;9.940;2023-04-19T09:30:38;12.50;52.20
31074;DHT22;17730;53.552;9.940;2023-04-19T09:33:04;12.40;53.40
31074;DHT22;17730;53.552;9.940;2023-04-19T09:35:39;12.20;52.20
31074;DHT22;17730;53.552;9.940;2023-04-19T09:38:05;12.30;50.80
31074;DHT22;17730;53.552;9.940;2023-04-19T09:40:31;12.40;49.00
31074;DHT22;17730;53.552;9.940;2023-04-19T09:42:56;12.60;49.00
31074;DHT22;17730;53.552;9.940;2023-04-19T09:45:22;12.70;49.10
31074;DHT22;17730;53.552;9.940;2023-04-19T09:48:06;12.60;46.90
31074;DHT22;17730;53.552;9.940;2023-04-19T09:50:32;12.60;48.50
31074;DHT22;17730;53.552;9.940;2023-04-19T09:52:57;12.40;46.40
31074;DHT22;17730;53.552;9.940;2023-04-19T09:55:23;12.40;48.40
31074;DHT22;17730;53.552;9.940;2023-04-19T09:57:50;12.60;48.80
31074;DHT22;17730;53.552;9.940;2023-04-19T10:00:16;12.80;45.50
31074;DHT22;17730;53.552;9.940;2023-04-19T10:02:41;12.80;43.70
31074;DHT22;17730;53.552;9.940;2023-04-19T10:05:09;12.60;43.30
31074;DHT22;17730;53.552;9.940;2023-04-19T10:07:35;12.60;44.00
31074;DHT22;17730;53.552;9.940;2023-04-19T10:10:01;12.50;43.80
31074;DHT22;17730;53.552;9.940;2023-04-19T10:12:26;12.60;43.20
31074;DHT22;17730;53.552;9.940;2023-04-19T10:14:53;12.70;41.30
31074;DHT22;17730;53.552;9.940;2023-04-19T10:17:19;12.90;39.60
31074;DHT22;17730;53.552;9.940;2023-04-19T10:19:46;12.90;38.40
31074;DHT22;17730;53.552;9.940;2023-04-19T10:22:12;12.90;37.40
31074;DHT22;17730;53.552;9.940;2023-04-19T10:24:38;12.80;36.60
31074;DHT22;17730;53.552;9.940;2023-04-19T10:27:08;12.90;35.80
31074;DHT22;17730;53.552;9.940;2023-04-19T10:29:54;13.00;35.40
31074;DHT22;17730;53.552;9.940;2023-04-19T10:32:20;12.80;34.10
31074;DHT22;17730;53.552;9.940;2023-04-19T10:34:45;12.70;33.70
31074;DHT22;17730;53.552;9.940;2023-04-19T10:37:14;12.90;34.30
31074;DHT22;17730;53.552;9.940;2023-04-19T10:39:41;13.00;34.30
31074;DHT22;17730;53.552;9.940;2023-04-19T10:42:07;13.00;33.60
31074;DHT22;17730;53.552;9.940;2023-04-19T10:44:32;12.90;33.70
31074;DHT22;17730;53.552;9.940;2023-04-19T10:46:58;12.90;34.20
31074;DHT22;17730;53.552;9.940;2023-04-19T10:49:24;12.80;33.90
31074;DHT22;17730;53.552;9.940;2023-04-19T10:51:50;12.90;33.00
31074;DHT22;17730;53.552;9.940;2023-04-19T10:54:27;12.90;32.40
31074;DHT22;17730;53.552;9.940;2023-04-19T10:56:56;13.00;32.50
31074;DHT22;17730;53.552;9.940;2023-04-19T10:59:22;12.80;32.70
31074;DHT22;17730;53.552;9.940;2023-04-19T11:01:52;12.90;32.50
31074;DHT22;17730;53.552;9.940;2023-04-19T11:04:21;12.90;31.10
31074;DHT22;17730;53.552;9.940;2023-04-19T11:09:22;13.20;30.60
31074;DHT22;17730;53.552;9.940;2023-04-19T11:11:48;13.50;30.50
31074;DHT22;17730;53.552;9.940;2023-04-19T11:14:14;13.30;30.30
31074;DHT22;17730;53.552;9.940;2023-04-19T11:16:40;13.10;30.00
31074;DHT22;17730;53.552;9.940;2023-04-19T11:19:06;13.10;29.50
31074;DHT22;17730;53.552;9.940;2023-04-19T11:21:31;13.10;29.80
31074;DHT22;17730;53.552;9.940;2023-04-19T11:24:07;13.20;30.00
31074;DHT22;17730;53.552;9.940;2023-04-19T11:26:32;13.30;29.60
31074;DHT22;17730;53.552;9.940;2023-04-19T11:28:59;13.30;29.50
31074;DHT22;17730;53.552;9.940;2023-04-19T11:31:24;13.20;29.70
31074;DHT22;17730;53.552;9.940;2023-04-19T11:33:50;13.20;30.30
31074;DHT22;17730;53.552;9.940;2023-04-19T11:36:16;13.10;29.10
31074;DHT22;17730;53.552;9.940;2023-04-19T11:38:45;13.00;28.20
31074;DHT22;17730;53.552;9.940;2023-04-19T11:41:11;12.80;28.10
31074;DHT22;17730;53.552;9.940;2023-04-19T11:43:36;12.80;28.70
31074;DHT22;17730;53.552;9.940;2023-04-19T11:46:05;12.90;29.30
31074;DHT22;17730;53.552;9.940;2023-04-19T11:48:31;12.80;29.70
31074;DHT22;17730;53.552;9.940;2023-04-19T11:53:23;12.80;29.30
31074;DHT22;17730;53.552;9.940;2023-04-19T11:55:53;12.60;28.50
31074;DHT22;17730;53.552;9.940;2023-04-19T11:58:35;12.50;28.60
31074;DHT22;17730;53.552;9.940;2023-04-19T12:01:05;12.60;29.70
31074;DHT22;17730;53.552;9.940;2023-04-19T12:03:31;12.70;28.80
31074;DHT22;17730;53.552;9.940;2023-04-19T12:06:00;12.60;29.00
31074;DHT22;17730;53.552;9.940;2023-04-19T12:08:37;12.80;29.50
31074;DHT22;17730;53.552;9.940;2023-04-19T12:11:03;12.70;29.20
31074;DHT22;17730;53.552;9.940;2023-04-19T12:13:29;12.80;29.00
31074;DHT22;17730;53.552;9.940;2023-04-19T12:15:55;12.70;29.10
31074;DHT22;17730;53.552;9.940;2023-04-19T12:18:21;12.50;29.10
31074;DHT22;17730;53.552;9.940;2023-04-19T12:20:47;12.60;29.30
31074;DHT22;17730;53.552;9.940;2023-04-19T12:23:13;12.70;29.10
31074;DHT22;17730;53.552;9.940;2023-04-19T12:25:40;12.80;29.70
31074;DHT22;17730;53.552;9.940;2023-04-19T12:28:05;12.90;29.20
31074;DHT22;17730;53.552;9.940;2023-04-19T12:30:31;13.00;29.30
31074;DHT22;17730;53.552;9.940;2023-04-19T12:32:57;13.10;29.00
31074;DHT22;17730;53.552;9.940;2023-04-19T12:35:23;13.00;28.10
31074;DHT22;17730;53.552;9.940;2023-04-19T12:37:50;12.50;28.60
31074;DHT22;17730;53.552;9.940;2023-04-19T12:40:16;12.60;28.60
31074;DHT22;17730;53.552;9.940;2023-04-19T12:42:41;12.30;28.70
31074;DHT22;17730;53.552;9.940;2023-04-19T12:45:07;12.60;29.40
31074;DHT22;17730;53.552;9.940;2023-04-19T12:47:32;12.60;29.60
31074;DHT22;17730;53.552;9.940;2023-04-19T12:49:58;12.40;30.00
31074;DHT22;17730;53.552;9.940;2023-04-19T12:52:23;12.50;31.00
31074;DHT22;17730;53.552;9.940;2023-04-19T12:54:49;12.50;29.90
31074;DHT22;17730;53.552;9.940;2023-04-19T12:57:15;12.40;30.80
31074;DHT22;17730;53.552;9.940;2023-04-19T12:59:40;12.50;30.80
31074;DHT22;17730;53.552;9.940;2023-04-19T13:02:06;12.40;31.40
31074;DHT22;17730;53.552;9.940;2023-04-19T13:04:31;12.60;31.30
31074;DHT22;17730;53.552;9.940;2023-04-19T13:06:57;12.70;31.00
31074;DHT22;17730;53.552;9.940;2023-04-19T13:09:22;12.80;31.20
31074;DHT22;17730;53.552;9.940;2023-04-19T13:11:48;12.90;30.70
31074;DHT22;17730;53.552;9.940;2023-04-19T13:14:13;12.60;31.60
31074;DHT22;17730;53.552;9.940;2023-04-19T13:16:39;12.60;31.10
31074;DHT22;17730;53.552;9.940;2023-04-19T13:19:04;12.60;30.30
31074;DHT22;17730;53.552;9.940;2023-04-19T13:21:29;12.60;30.20
31074;DHT22;17730;53.552;9.940;2023-04-19T13:23:58;12.30;30.00
31074;DHT22;17730;53.552;9.940;2023-04-19T13:26:24;12.40;30.20
31074;DHT22;17730;53.552;9.940;2023-04-19T13:28:49;12.40;30.00
31074;DHT22;17730;53.552;9.940;2023-04-19T13:31:15;12.40;29.50
31074;DHT22;17730;53.552;9.940;2023-04-19T13:33:40;12.30;30.00
31074;DHT22;17730;53.552;9.940;2023-04-19T13:36:06;12.30;30.00
31074;DHT22;17730;53.552;9.940;2023-04-19T13:38:31;12.30;30.00
31074;DHT22;17730;53.552;9.940;2023-04-19T13:40:57;12.30;30.70
31074;DHT22;17730;53.552;9.940;2023-04-19T13:43:23;12.50;30.40
31074;DHT22;17730;53.552;9.940;2023-04-19T13:45:48;12.60;29.90
31074;DHT22;17730;53.552;9.940;2023-04-19T13:48:14;12.50;30.10
31074;DHT22;17730;53.552;9.940;2023-04-19T13:50:39;12.20;30.20
31074;DHT22;17730;53.552;9.940;2023-04-19T13:53:05;12.20;30.80
31074;DHT22;17730;53.552;9.940;2023-04-19T13:55:31;12.30;29.70
31074;DHT22;17730;53.552;9.940;2023-04-19T13:57:56;12.30;29.40
31074;DHT22;17730;53.552;9.940;2023-04-19T14:00:22;12.30;30.10
31074;DHT22;17730;53.552;9.940;2023-04-19T14:02:48;12.20;29.90
31074;DHT22;17730;53.552;9.940;2023-04-19T14:05:13;12.00;29.20
31074;DHT22;17730;53.552;9.940;2023-04-19T14:07:39;12.00;29.80
31074;DHT22;17730;53.552;9.940;2023-04-19T14:10:05;12.00;29.50
31074;DHT22;17730;53.552;9.940;2023-04-19T14:12:31;12.00;29.60
31074;DHT22;17730;53.552;9.940;2023-04-19T14:14:57;12.10;29.80
31074;DHT22;17730;53.552;9.940;2023-04-19T14:17:22;12.10;29.80
31074;DHT22;17730;53.552;9.940;2023-04-19T14:19:48;11.90;29.40
31074;DHT22;17730;53.552;9.940;2023-04-19T14:22:14;11.80;30.00
31074;DHT22;17730;53.552;9.940;2023-04-19T14:24:40;11.70;30.30
31074;DHT22;17730;53.552;9.940;2023-04-19T14:27:06;11.80;29.50
31074;DHT22;17730;53.552;9.940;2023-04-19T14:29:31;11.80;29.50
31074;DHT22;17730;53.552;9.940;2023-04-19T14:31:56;11.70;29.50
31074;DHT22;17730;53.552;9.940;2023-04-19T14:34:23;11.70;30.30
31074;DHT22;17730;53.552;9.940;2023-04-19T14:36:49;11.80;29.70
31074;DHT22;17730;53.552;9.940;2023-04-19T14:39:15;11.80;29.60
31074;DHT22;17730;53.552;9.940;2023-04-19T14:41:40;11.80;29.70
31074;DHT22;17730;53.552;9.940;2023-04-19T14:44:06;11.70;29.90
31074;DHT22;17730;53.552;9.940;2023-04-19T14:46:31;11.70;29.60
31074;DHT22;17730;53.552;9.940;2023-04-19T14:48:57;11.80;29.50
31074;DHT22;17730;53.552;9.940;2023-04-19T14:51:28;11.90;29.40
31074;DHT22;17730;53.552;9.940;2023-04-19T14:53:53;11.90;29.80
31074;DHT22;17730;53.552;9.940;2023-04-19T14:56:19;12.00;29.70
31074;DHT22;17730;53.552;9.940;2023-04-19T14:58:44;11.80;29.30
31074;DHT22;17730;53.552;9.940;2023-04-19T15:01:10;11.80;29.30
31074;DHT22;17730;53.552;9.940;2023-04-19T15:03:36;11.80;28.80
31074;DHT22;17730;53.552;9.940;2023-04-19T15:06:01;11.60;29.50
31074;DHT22;17730;53.552;9.940;2023-04-19T15:08:27;11.60;29.40
31074;DHT22;17730;53.552;9.940;2023-04-19T15:10:53;11.70;29.40
31074;DHT22;17730;53.552;9.940;2023-04-19T15:13:18;11.70;29.50
31074;DHT22;17730;53.552;9.940;2023-04-19T15:15:44;11.70;29.50
31074;DHT22;17730;53.552;9.940;2023-04-19T15:18:09;11.70;30.00
31074;DHT22;17730;53.552;9.940;2023-04-19T15:20:35;11.60;29.90
31074;DHT22;17730;53.552;9.940;2023-04-19T15:23:01;11.80;29.50
31074;DHT22;17730;53.552;9.940;2023-04-19T15:25:26;11.80;29.40
31074;DHT22;17730;53.552;9.940;2023-04-19T15:27:51;11.90;28.50
31074;DHT22;17730;53.552;9.940;2023-04-19T15:30:17;11.90;28.00
31074;DHT22;17730;53.552;9.940;2023-04-19T15:32:42;11.70;27.30
31074;DHT22;17730;53.552;9.940;2023-04-19T15:35:08;11.70;27.80
31074;DHT22;17730;53.552;9.940;2023-04-19T15:37:33;11.70;27.70